Wladyslaw Orkan — 9HA4539 — position and weather

sailwx.info

Track history (hours):
 
Tides and Currents Weather Stations Pressure Air Temp Water Temp Dewpoint Dewpoint Depression Visibility Wind Speed Wind Dir Waves Ship Positions

Wladyslaw Orkan

Last reported at 2018-Jul-13 08:20 UTC. Time now 2018-Jul-21 15:32 UTC.
Position N 28°37' W 119°18'.
Warning: this ship's position is 8 days out of date.

Length 200 m; draft 9.3 m.

Type: Ship. MMSI: 248160000.

Date/timePositionNaut miles runAvg speedWind from/ knotsBaromVisibWave heightAir tempDewpointWater temp
2018-Jul-13 08:20N 28°37' W 119°18'3413.4
2018-Jul-13 05:48N 28°58' W 119°48'1813.4
2018-Jul-13 04:27N 29°09' W 120°04'713.4
2018-Jul-13 03:55N 29°14' W 120°11'513.3
2018-Jul-13 03:30N 29°17' W 120°16'713.5
2018-Jul-13 02:59N 29°22' W 120°22'813.7
2018-Jul-13 02:25N 29°27' W 120°29'813.8
2018-Jul-13 01:51N 29°32' W 120°36'913.7
2018-Jul-13 01:12N 29°38' W 120°43'313.6
2018-Jul-13 01:00N 29°39' W 120°46'1413.8
2018-Jul-12 23:59N 29°48' W 120°58'713.7
2018-Jul-12 23:29N 29°53' W 121°04'613.5
2018-Jul-12 23:00N 29°56' W 121°10'713.4
2018-Jul-12 22:30N 30°01' W 121°16'713.6
2018-Jul-12 22:00N 30°05' W 121°22'713.6
2018-Jul-12 21:30N 30°09' W 121°29'713.4
2018-Jul-12 21:00N 30°13' W 121°35'913.4
2018-Jul-12 20:22N 30°18' W 121°42'3613.4
2018-Jul-12 17:39N 30°41' W 122°16'313.4
2018-Jul-12 17:26N 30°43' W 122°18'913.7
2018-Jul-12 16:46N 30°49' W 122°26'513.8
2018-Jul-12 16:26N 30°52' W 122°30'713.7
2018-Jul-12 15:54N 30°57' W 122°37'913.5
2018-Jul-12 15:16N 31°02' W 122°44'713.6
2018-Jul-12 14:47N 31°06' W 122°50'1913.6
2018-Jul-12 13:23N 31°18' W 123°08'3313.5
2018-Jul-12 10:56N 31°38' W 123°38'1113.5
2018-Jul-12 10:06N 31°45' W 123°49'113.4
2018-Jul-12 09:59N 31°46' W 123°50'613.3
2018-Jul-12 09:30N 31°51' W 123°56'2213.5
2018-Jul-12 07:51N 32°05' W 124°16'  
Track history (hours):
 
Tides and Currents Weather Stations Pressure Air Temp Water Temp Dewpoint Dewpoint Depression Visibility Wind Speed Wind Dir Waves Ship Positions

Wladyslaw Orkan

Last reported at 2018-Jul-13 08:20 UTC. Time now 2018-Jul-21 15:32 UTC.
Position N 28°37' W 119°18'.
Warning: this ship's position is 8 days out of date.

Length 200 m; draft 9.3 m.

Type: Ship. MMSI: 248160000.

Date/timePositionNaut miles runAvg speedWind from/ knotsBaromVisibWave heightAir tempDewpointWater temp
2018-Jul-13 08:20N 28°37' W 119°18'3413.4
2018-Jul-13 05:48N 28°58' W 119°48'1813.4
2018-Jul-13 04:27N 29°09' W 120°04'713.4
2018-Jul-13 03:55N 29°14' W 120°11'513.3
2018-Jul-13 03:30N 29°17' W 120°16'713.5
2018-Jul-13 02:59N 29°22' W 120°22'813.7
2018-Jul-13 02:25N 29°27' W 120°29'813.8
2018-Jul-13 01:51N 29°32' W 120°36'913.7
2018-Jul-13 01:12N 29°38' W 120°43'313.6
2018-Jul-13 01:00N 29°39' W 120°46'1413.8
2018-Jul-12 23:59N 29°48' W 120°58'713.7
2018-Jul-12 23:29N 29°53' W 121°04'613.5
2018-Jul-12 23:00N 29°56' W 121°10'713.4
2018-Jul-12 22:30N 30°01' W 121°16'713.6
2018-Jul-12 22:00N 30°05' W 121°22'713.6
2018-Jul-12 21:30N 30°09' W 121°29'713.4
2018-Jul-12 21:00N 30°13' W 121°35'913.4
2018-Jul-12 20:22N 30°18' W 121°42'3613.4
2018-Jul-12 17:39N 30°41' W 122°16'313.4
2018-Jul-12 17:26N 30°43' W 122°18'913.7
2018-Jul-12 16:46N 30°49' W 122°26'513.8
2018-Jul-12 16:26N 30°52' W 122°30'713.7
2018-Jul-12 15:54N 30°57' W 122°37'913.5
2018-Jul-12 15:16N 31°02' W 122°44'713.6
2018-Jul-12 14:47N 31°06' W 122°50'1913.6
2018-Jul-12 13:23N 31°18' W 123°08'3313.5
2018-Jul-12 10:56N 31°38' W 123°38'1113.5
2018-Jul-12 10:06N 31°45' W 123°49'113.4
2018-Jul-12 09:59N 31°46' W 123°50'613.3
2018-Jul-12 09:30N 31°51' W 123°56'2213.5
2018-Jul-12 07:51N 32°05' W 124°16'  

Dump ship's entire track history